sensor_id;sensor_type;location;lat;lon;timestamp;temperature;humidity
42097;DHT22;27754;45.414;11.084;2022-11-23T00:00:39;8.20;94.10
42097;DHT22;27754;45.414;11.084;2022-11-23T00:03:06;8.20;94.20
42097;DHT22;27754;45.414;11.084;2022-11-23T00:05:33;8.20;94.20
42097;DHT22;27754;45.414;11.084;2022-11-23T00:08:00;8.20;94.30
42097;DHT22;27754;45.414;11.084;2022-11-23T00:10:27;8.20;94.20
42097;DHT22;27754;45.414;11.084;2022-11-23T00:12:54;8.20;94.30
42097;DHT22;27754;45.414;11.084;2022-11-23T00:15:21;8.20;94.40
42097;DHT22;27754;45.414;11.084;2022-11-23T00:17:48;8.20;94.40
42097;DHT22;27754;45.414;11.084;2022-11-23T00:20:15;8.30;94.40
42097;DHT22;27754;45.414;11.084;2022-11-23T00:22:42;8.20;94.40
42097;DHT22;27754;45.414;11.084;2022-11-23T00:25:09;8.30;94.40
42097;DHT22;27754;45.414;11.084;2022-11-23T00:27:36;8.20;94.40
42097;DHT22;27754;45.414;11.084;2022-11-23T00:30:04;8.30;94.50
42097;DHT22;27754;45.414;11.084;2022-11-23T00:32:31;8.30;94.40
42097;DHT22;27754;45.414;11.084;2022-11-23T00:34:57;8.30;94.50
42097;DHT22;27754;45.414;11.084;2022-11-23T00:37:24;8.30;94.40
42097;DHT22;27754;45.414;11.084;2022-11-23T00:39:53;8.30;94.40
42097;DHT22;27754;45.414;11.084;2022-11-23T00:42:20;8.30;94.40
42097;DHT22;27754;45.414;11.084;2022-11-23T00:44:47;8.30;94.50
42097;DHT22;27754;45.414;11.084;2022-11-23T00:47:14;8.30;94.50
42097;DHT22;27754;45.414;11.084;2022-11-23T00:49:41;8.20;94.60
42097;DHT22;27754;45.414;11.084;2022-11-23T00:52:08;8.20;94.70
42097;DHT22;27754;45.414;11.084;2022-11-23T00:54:36;8.20;94.60
42097;DHT22;27754;45.414;11.084;2022-11-23T00:57:02;8.20;94.60
42097;DHT22;27754;45.414;11.084;2022-11-23T00:59:30;8.20;94.60
42097;DHT22;27754;45.414;11.084;2022-11-23T01:01:59;8.10;94.60
42097;DHT22;27754;45.414;11.084;2022-11-23T01:04:26;8.10;94.60
42097;DHT22;27754;45.414;11.084;2022-11-23T01:06:57;8.20;94.70
42097;DHT22;27754;45.414;11.084;2022-11-23T01:09:23;8.10;94.60
42097;DHT22;27754;45.414;11.084;2022-11-23T01:11:53;8.10;94.60
42097;DHT22;27754;45.414;11.084;2022-11-23T01:14:23;8.00;94.50
42097;DHT22;27754;45.414;11.084;2022-11-23T01:16:50;8.00;94.70
42097;DHT22;27754;45.414;11.084;2022-11-23T01:19:18;8.00;94.70
42097;DHT22;27754;45.414;11.084;2022-11-23T01:21:48;8.10;94.70
42097;DHT22;27754;45.414;11.084;2022-11-23T01:24:20;8.10;94.70
42097;DHT22;27754;45.414;11.084;2022-11-23T01:26:54;8.00;94.70
42097;DHT22;27754;45.414;11.084;2022-11-23T01:29:22;8.00;94.60
42097;DHT22;27754;45.414;11.084;2022-11-23T01:31:49;7.90;94.70
42097;DHT22;27754;45.414;11.084;2022-11-23T01:34:16;7.90;94.70
42097;DHT22;27754;45.414;11.084;2022-11-23T01:36:44;7.90;94.90
42097;DHT22;27754;45.414;11.084;2022-11-23T01:39:11;7.90;94.80
42097;DHT22;27754;45.414;11.084;2022-11-23T01:41:40;7.80;94.90
42097;DHT22;27754;45.414;11.084;2022-11-23T01:44:29;7.80;94.90
42097;DHT22;27754;45.414;11.084;2022-11-23T01:46:58;7.80;95.00
42097;DHT22;27754;45.414;11.084;2022-11-23T01:49:34;7.80;94.90
42097;DHT22;27754;45.414;11.084;2022-11-23T01:52:06;7.80;95.00
42097;DHT22;27754;45.414;11.084;2022-11-23T01:54:39;7.70;95.00
42097;DHT22;27754;45.414;11.084;2022-11-23T01:57:12;7.80;95.10
42097;DHT22;27754;45.414;11.084;2022-11-23T01:59:43;7.70;95.00
42097;DHT22;27754;45.414;11.084;2022-11-23T02:02:11;7.70;95.00
42097;DHT22;27754;45.414;11.084;2022-11-23T02:04:42;7.70;95.00
42097;DHT22;27754;45.414;11.084;2022-11-23T02:07:13;7.70;95.00
42097;DHT22;27754;45.414;11.084;2022-11-23T02:09:44;7.60;95.00
42097;DHT22;27754;45.414;11.084;2022-11-23T02:12:13;7.60;95.00
42097;DHT22;27754;45.414;11.084;2022-11-23T02:14:43;7.60;95.10
42097;DHT22;27754;45.414;11.084;2022-11-23T02:17:11;7.60;95.10
42097;DHT22;27754;45.414;11.084;2022-11-23T02:20:03;7.50;94.70
42097;DHT22;27754;45.414;11.084;2022-11-23T02:23:33;7.50;94.70
42097;DHT22;27754;45.414;11.084;2022-11-23T02:28:16;7.40;94.70
42097;DHT22;27754;45.414;11.084;2022-11-23T02:30:46;7.40;94.50
42097;DHT22;27754;45.414;11.084;2022-11-23T02:33:14;7.30;94.40
42097;DHT22;27754;45.414;11.084;2022-11-23T02:35:49;7.30;94.50
42097;DHT22;27754;45.414;11.084;2022-11-23T02:38:17;7.30;94.70
42097;DHT22;27754;45.414;11.084;2022-11-23T02:40:45;7.40;94.80
42097;DHT22;27754;45.414;11.084;2022-11-23T02:43:12;7.30;94.60
42097;DHT22;27754;45.414;11.084;2022-11-23T02:45:49;7.20;94.60
42097;DHT22;27754;45.414;11.084;2022-11-23T02:48:17;7.20;94.60
42097;DHT22;27754;45.414;11.084;2022-11-23T02:50:44;7.10;94.30
42097;DHT22;27754;45.414;11.084;2022-11-23T02:53:12;7.10;94.40
42097;DHT22;27754;45.414;11.084;2022-11-23T02:55:39;7.10;94.50
42097;DHT22;27754;45.414;11.084;2022-11-23T02:58:06;7.00;94.40
42097;DHT22;27754;45.414;11.084;2022-11-23T03:00:33;7.00;94.40
42097;DHT22;27754;45.414;11.084;2022-11-23T03:03:01;6.90;94.50
42097;DHT22;27754;45.414;11.084;2022-11-23T03:05:28;6.90;94.60
42097;DHT22;27754;45.414;11.084;2022-11-23T03:07:56;6.90;94.70
42097;DHT22;27754;45.414;11.084;2022-11-23T03:10:23;7.00;94.60
42097;DHT22;27754;45.414;11.084;2022-11-23T03:12:53;6.90;94.30
42097;DHT22;27754;45.414;11.084;2022-11-23T03:15:22;6.90;94.20
42097;DHT22;27754;45.414;11.084;2022-11-23T03:17:51;6.80;94.00
42097;DHT22;27754;45.414;11.084;2022-11-23T03:20:19;6.80;94.00
42097;DHT22;27754;45.414;11.084;2022-11-23T03:22:48;6.70;94.10
42097;DHT22;27754;45.414;11.084;2022-11-23T03:25:17;6.70;94.30
42097;DHT22;27754;45.414;11.084;2022-11-23T03:27:47;6.60;94.50
42097;DHT22;27754;45.414;11.084;2022-11-23T03:30:14;6.60;94.50
42097;DHT22;27754;45.414;11.084;2022-11-23T03:32:42;6.40;94.50
42097;DHT22;27754;45.414;11.084;2022-11-23T03:35:09;6.40;94.50
42097;DHT22;27754;45.414;11.084;2022-11-23T03:37:48;6.40;94.60
42097;DHT22;27754;45.414;11.084;2022-11-23T03:40:15;6.40;94.30
42097;DHT22;27754;45.414;11.084;2022-11-23T03:43:12;6.30;94.20
42097;DHT22;27754;45.414;11.084;2022-11-23T03:45:40;6.30;94.10
42097;DHT22;27754;45.414;11.084;2022-11-23T03:48:07;6.20;93.90
42097;DHT22;27754;45.414;11.084;2022-11-23T03:50:35;6.10;93.90
42097;DHT22;27754;45.414;11.084;2022-11-23T03:53:02;6.20;93.90
42097;DHT22;27754;45.414;11.084;2022-11-23T03:55:29;6.20;93.80
42097;DHT22;27754;45.414;11.084;2022-11-23T03:57:57;6.20;93.80
42097;DHT22;27754;45.414;11.084;2022-11-23T04:00:31;6.10;93.70
42097;DHT22;27754;45.414;11.084;2022-11-23T04:02:58;6.20;93.50
42097;DHT22;27754;45.414;11.084;2022-11-23T04:05:44;6.10;93.50
42097;DHT22;27754;45.414;11.084;2022-11-23T04:08:17;6.20;93.60
42097;DHT22;27754;45.414;11.084;2022-11-23T04:10:43;6.20;93.50
42097;DHT22;27754;45.414;11.084;2022-11-23T04:13:17;6.20;93.20
42097;DHT22;27754;45.414;11.084;2022-11-23T04:15:45;6.10;93.30
42097;DHT22;27754;45.414;11.084;2022-11-23T04:18:12;6.10;93.30
42097;DHT22;27754;45.414;11.084;2022-11-23T04:20:39;6.00;93.50
42097;DHT22;27754;45.414;11.084;2022-11-23T04:23:06;6.00;93.50
42097;DHT22;27754;45.414;11.084;2022-11-23T04:25:39;5.90;93.50
42097;DHT22;27754;45.414;11.084;2022-11-23T04:28:07;6.00;93.50
42097;DHT22;27754;45.414;11.084;2022-11-23T04:30:34;6.10;93.50
42097;DHT22;27754;45.414;11.084;2022-11-23T04:33:01;6.10;93.10
42097;DHT22;27754;45.414;11.084;2022-11-23T04:35:29;6.00;93.10
42097;DHT22;27754;45.414;11.084;2022-11-23T04:37:57;6.00;92.80
42097;DHT22;27754;45.414;11.084;2022-11-23T04:40:26;5.90;92.80
42097;DHT22;27754;45.414;11.084;2022-11-23T04:42:59;5.90;92.70
42097;DHT22;27754;45.414;11.084;2022-11-23T04:45:31;5.90;93.00
42097;DHT22;27754;45.414;11.084;2022-11-23T04:48:03;5.90;93.00
42097;DHT22;27754;45.414;11.084;2022-11-23T04:50:32;5.80;92.80
42097;DHT22;27754;45.414;11.084;2022-11-23T04:53:00;5.70;92.90
42097;DHT22;27754;45.414;11.084;2022-11-23T04:55:36;5.70;92.90
42097;DHT22;27754;45.414;11.084;2022-11-23T04:58:03;5.70;92.90
42097;DHT22;27754;45.414;11.084;2022-11-23T05:00:32;5.60;93.00
42097;DHT22;27754;45.414;11.084;2022-11-23T05:03:02;5.60;92.90
42097;DHT22;27754;45.414;11.084;2022-11-23T05:05:36;5.60;92.90
42097;DHT22;27754;45.414;11.084;2022-11-23T05:08:04;5.60;92.30
42097;DHT22;27754;45.414;11.084;2022-11-23T05:10:53;5.60;92.50
42097;DHT22;27754;45.414;11.084;2022-11-23T05:13:21;5.50;92.30
42097;DHT22;27754;45.414;11.084;2022-11-23T05:15:49;5.50;92.40
42097;DHT22;27754;45.414;11.084;2022-11-23T05:18:22;5.40;92.70
42097;DHT22;27754;45.414;11.084;2022-11-23T05:20:49;5.50;92.90
42097;DHT22;27754;45.414;11.084;2022-11-23T05:23:16;5.50;92.80
42097;DHT22;27754;45.414;11.084;2022-11-23T05:25:44;5.50;92.50
42097;DHT22;27754;45.414;11.084;2022-11-23T05:28:17;5.40;92.50
42097;DHT22;27754;45.414;11.084;2022-11-23T05:31:05;5.40;93.20
42097;DHT22;27754;45.414;11.084;2022-11-23T05:33:33;5.40;93.50
42097;DHT22;27754;45.414;11.084;2022-11-23T05:36:01;5.50;93.90
42097;DHT22;27754;45.414;11.084;2022-11-23T05:38:35;5.60;94.10
42097;DHT22;27754;45.414;11.084;2022-11-23T05:41:07;5.40;93.90
42097;DHT22;27754;45.414;11.084;2022-11-23T05:43:38;5.30;93.60
42097;DHT22;27754;45.414;11.084;2022-11-23T05:46:07;5.20;93.90
42097;DHT22;27754;45.414;11.084;2022-11-23T05:48:36;5.20;94.30
42097;DHT22;27754;45.414;11.084;2022-11-23T05:51:09;5.20;94.40
42097;DHT22;27754;45.414;11.084;2022-11-23T05:53:41;5.10;94.30
42097;DHT22;27754;45.414;11.084;2022-11-23T05:56:31;5.10;94.30
42097;DHT22;27754;45.414;11.084;2022-11-23T05:59:12;5.10;94.30
42097;DHT22;27754;45.414;11.084;2022-11-23T06:01:42;5.10;94.50
42097;DHT22;27754;45.414;11.084;2022-11-23T06:04:12;5.10;94.60
42097;DHT22;27754;45.414;11.084;2022-11-23T06:06:43;5.20;94.40
42097;DHT22;27754;45.414;11.084;2022-11-23T06:09:10;5.20;94.50
42097;DHT22;27754;45.414;11.084;2022-11-23T06:11:41;5.20;94.40
42097;DHT22;27754;45.414;11.084;2022-11-23T06:14:13;5.10;94.30
42097;DHT22;27754;45.414;11.084;2022-11-23T06:16:43;5.10;94.40
42097;DHT22;27754;45.414;11.084;2022-11-23T06:19:30;5.10;94.40
42097;DHT22;27754;45.414;11.084;2022-11-23T06:21:58;5.00;94.60
42097;DHT22;27754;45.414;11.084;2022-11-23T06:24:29;5.00;94.50
42097;DHT22;27754;45.414;11.084;2022-11-23T06:27:15;5.10;94.70
42097;DHT22;27754;45.414;11.084;2022-11-23T06:29:44;5.20;94.40
42097;DHT22;27754;45.414;11.084;2022-11-23T06:32:13;5.20;94.00
42097;DHT22;27754;45.414;11.084;2022-11-23T06:34:41;5.10;93.60
42097;DHT22;27754;45.414;11.084;2022-11-23T06:37:09;5.00;93.50
42097;DHT22;27754;45.414;11.084;2022-11-23T06:39:36;5.10;93.80
42097;DHT22;27754;45.414;11.084;2022-11-23T06:42:05;5.20;94.00
42097;DHT22;27754;45.414;11.084;2022-11-23T06:44:52;5.30;94.10
42097;DHT22;27754;45.414;11.084;2022-11-23T06:47:21;5.40;94.00
42097;DHT22;27754;45.414;11.084;2022-11-23T06:49:52;5.30;93.50
42097;DHT22;27754;45.414;11.084;2022-11-23T06:52:26;5.30;93.50
42097;DHT22;27754;45.414;11.084;2022-11-23T06:54:53;5.40;93.60
42097;DHT22;27754;45.414;11.084;2022-11-23T06:57:22;5.30;93.50
42097;DHT22;27754;45.414;11.084;2022-11-23T06:59:49;5.40;93.60
42097;DHT22;27754;45.414;11.084;2022-11-23T07:02:22;5.40;93.60
42097;DHT22;27754;45.414;11.084;2022-11-23T07:04:50;5.50;93.20
42097;DHT22;27754;45.414;11.084;2022-11-23T07:07:18;5.50;93.10
42097;DHT22;27754;45.414;11.084;2022-11-23T07:09:54;5.60;93.00
42097;DHT22;27754;45.414;11.084;2022-11-23T07:12:30;5.60;93.00
42097;DHT22;27754;45.414;11.084;2022-11-23T07:14:59;5.60;92.80
42097;DHT22;27754;45.414;11.084;2022-11-23T07:17:31;5.60;92.80
42097;DHT22;27754;45.414;11.084;2022-11-23T07:19:58;5.70;93.00
42097;DHT22;27754;45.414;11.084;2022-11-23T07:22:25;5.80;92.70
42097;DHT22;27754;45.414;11.084;2022-11-23T07:24:51;5.90;92.70
42097;DHT22;27754;45.414;11.084;2022-11-23T07:27:18;5.90;92.50
42097;DHT22;27754;45.414;11.084;2022-11-23T07:29:46;6.00;92.60
42097;DHT22;27754;45.414;11.084;2022-11-23T07:32:13;6.10;92.50
42097;DHT22;27754;45.414;11.084;2022-11-23T07:34:41;6.20;92.50
42097;DHT22;27754;45.414;11.084;2022-11-23T07:37:08;6.20;92.50
42097;DHT22;27754;45.414;11.084;2022-11-23T07:39:37;6.30;92.40
42097;DHT22;27754;45.414;11.084;2022-11-23T07:42:28;6.40;92.10
42097;DHT22;27754;45.414;11.084;2022-11-23T07:45:06;6.50;92.10
42097;DHT22;27754;45.414;11.084;2022-11-23T07:47:35;6.60;92.00
42097;DHT22;27754;45.414;11.084;2022-11-23T07:50:04;6.60;91.80
42097;DHT22;27754;45.414;11.084;2022-11-23T07:52:31;6.80;92.00
42097;DHT22;27754;45.414;11.084;2022-11-23T07:54:58;6.80;92.10
42097;DHT22;27754;45.414;11.084;2022-11-23T07:57:26;6.90;92.20
42097;DHT22;27754;45.414;11.084;2022-11-23T07:59:53;7.00;91.90
42097;DHT22;27754;45.414;11.084;2022-11-23T08:02:20;7.10;92.00
42097;DHT22;27754;45.414;11.084;2022-11-23T08:04:47;7.30;91.80
42097;DHT22;27754;45.414;11.084;2022-11-23T08:07:14;7.40;91.70
42097;DHT22;27754;45.414;11.084;2022-11-23T08:09:41;7.50;91.30
42097;DHT22;27754;45.414;11.084;2022-11-23T08:12:08;7.50;91.30
42097;DHT22;27754;45.414;11.084;2022-11-23T08:14:35;7.70;91.10
42097;DHT22;27754;45.414;11.084;2022-11-23T08:17:02;7.80;90.50
42097;DHT22;27754;45.414;11.084;2022-11-23T08:19:29;7.80;90.50
42097;DHT22;27754;45.414;11.084;2022-11-23T08:21:56;7.90;90.60
42097;DHT22;27754;45.414;11.084;2022-11-23T08:24:23;8.10;90.40
42097;DHT22;27754;45.414;11.084;2022-11-23T08:26:49;8.20;89.60
42097;DHT22;27754;45.414;11.084;2022-11-23T08:29:16;8.30;89.60
42097;DHT22;27754;45.414;11.084;2022-11-23T08:31:43;8.30;89.80
42097;DHT22;27754;45.414;11.084;2022-11-23T08:34:10;8.30;90.00
42097;DHT22;27754;45.414;11.084;2022-11-23T08:36:37;8.40;90.10
42097;DHT22;27754;45.414;11.084;2022-11-23T08:39:04;8.50;89.70
42097;DHT22;27754;45.414;11.084;2022-11-23T08:41:32;8.60;89.30
42097;DHT22;27754;45.414;11.084;2022-11-23T08:43:59;8.70;89.00
42097;DHT22;27754;45.414;11.084;2022-11-23T08:46:25;8.80;88.80
42097;DHT22;27754;45.414;11.084;2022-11-23T08:48:52;8.90;88.80
42097;DHT22;27754;45.414;11.084;2022-11-23T08:51:19;8.90;88.50
42097;DHT22;27754;45.414;11.084;2022-11-23T08:53:48;8.90;88.10
42097;DHT22;27754;45.414;11.084;2022-11-23T08:56:16;9.00;88.40
42097;DHT22;27754;45.414;11.084;2022-11-23T08:58:43;9.10;87.70
42097;DHT22;27754;45.414;11.084;2022-11-23T09:01:12;9.30;87.60
42097;DHT22;27754;45.414;11.084;2022-11-23T09:03:39;9.40;87.70
42097;DHT22;27754;45.414;11.084;2022-11-23T09:06:07;9.70;87.30
42097;DHT22;27754;45.414;11.084;2022-11-23T09:08:35;9.70;86.70
42097;DHT22;27754;45.414;11.084;2022-11-23T09:11:04;9.80;85.90
42097;DHT22;27754;45.414;11.084;2022-11-23T09:13:33;9.90;83.90
42097;DHT22;27754;45.414;11.084;2022-11-23T09:16:01;10.00;81.70
42097;DHT22;27754;45.414;11.084;2022-11-23T09:18:28;10.10;81.80
42097;DHT22;27754;45.414;11.084;2022-11-23T09:20:56;10.10;81.40
42097;DHT22;27754;45.414;11.084;2022-11-23T09:23:24;10.20;81.60
42097;DHT22;27754;45.414;11.084;2022-11-23T09:25:52;10.20;82.00
42097;DHT22;27754;45.414;11.084;2022-11-23T09:28:19;10.20;81.00
42097;DHT22;27754;45.414;11.084;2022-11-23T09:30:46;10.30;80.60
42097;DHT22;27754;45.414;11.084;2022-11-23T09:33:13;10.40;76.60
42097;DHT22;27754;45.414;11.084;2022-11-23T09:35:40;10.30;76.90
42097;DHT22;27754;45.414;11.084;2022-11-23T09:38:28;10.40;77.90
42097;DHT22;27754;45.414;11.084;2022-11-23T09:44:34;10.60;76.30
42097;DHT22;27754;45.414;11.084;2022-11-23T09:47:22;10.60;77.10
42097;DHT22;27754;45.414;11.084;2022-11-23T09:52:29;10.60;76.00
42097;DHT22;27754;45.414;11.084;2022-11-23T09:57:55;10.80;76.90
42097;DHT22;27754;45.414;11.084;2022-11-23T10:00:26;10.80;75.50
42097;DHT22;27754;45.414;11.084;2022-11-23T10:02:56;10.80;76.50
42097;DHT22;27754;45.414;11.084;2022-11-23T10:05:25;10.70;76.60
42097;DHT22;27754;45.414;11.084;2022-11-23T10:08:16;10.70;76.20
42097;DHT22;27754;45.414;11.084;2022-11-23T10:13:44;10.80;76.20
42097;DHT22;27754;45.414;11.084;2022-11-23T10:16:36;10.80;76.90
42097;DHT22;27754;45.414;11.084;2022-11-23T10:22:06;10.90;76.50
42097;DHT22;27754;45.414;11.084;2022-11-23T10:24:50;11.00;75.20
42097;DHT22;27754;45.414;11.084;2022-11-23T10:27:20;11.00;75.40
42097;DHT22;27754;45.414;11.084;2022-11-23T10:29:48;11.00;75.90
42097;DHT22;27754;45.414;11.084;2022-11-23T10:35:36;10.90;75.40
42097;DHT22;27754;45.414;11.084;2022-11-23T10:38:14;11.00;75.40
42097;DHT22;27754;45.414;11.084;2022-11-23T10:41:06;11.10;74.40
42097;DHT22;27754;45.414;11.084;2022-11-23T10:49:19;11.10;74.10
42097;DHT22;27754;45.414;11.084;2022-11-23T10:54:39;11.20;74.50
42097;DHT22;27754;45.414;11.084;2022-11-23T11:00:02;11.30;74.80
42097;DHT22;27754;45.414;11.084;2022-11-23T11:02:38;11.40;74.60
42097;DHT22;27754;45.414;11.084;2022-11-23T11:05:33;11.40;74.20
42097;DHT22;27754;45.414;11.084;2022-11-23T11:08:24;11.40;74.10
42097;DHT22;27754;45.414;11.084;2022-11-23T11:11:02;11.40;73.90
42097;DHT22;27754;45.414;11.084;2022-11-23T11:16:09;11.30;73.80
42097;DHT22;27754;45.414;11.084;2022-11-23T11:18:43;11.40;73.90
42097;DHT22;27754;45.414;11.084;2022-11-23T11:21:30;11.40;74.10
42097;DHT22;27754;45.414;11.084;2022-11-23T11:24:03;11.40;74.00
42097;DHT22;27754;45.414;11.084;2022-11-23T11:26:33;11.40;72.70
42097;DHT22;27754;45.414;11.084;2022-11-23T11:29:05;11.40;72.80
42097;DHT22;27754;45.414;11.084;2022-11-23T11:34:40;11.60;72.70
42097;DHT22;27754;45.414;11.084;2022-11-23T11:39:53;11.60;71.20
42097;DHT22;27754;45.414;11.084;2022-11-23T11:42:36;11.80;72.30
42097;DHT22;27754;45.414;11.084;2022-11-23T11:45:32;11.80;72.90
42097;DHT22;27754;45.414;11.084;2022-11-23T11:50:54;11.90;72.30
42097;DHT22;27754;45.414;11.084;2022-11-23T11:53:26;11.90;72.20
42097;DHT22;27754;45.414;11.084;2022-11-23T11:56:03;11.80;72.20
42097;DHT22;27754;45.414;11.084;2022-11-23T11:58:37;11.90;71.40
42097;DHT22;27754;45.414;11.084;2022-11-23T12:01:41;12.00;70.10
42097;DHT22;27754;45.414;11.084;2022-11-23T12:04:34;12.00;69.50
42097;DHT22;27754;45.414;11.084;2022-11-23T12:07:11;12.00;70.20
42097;DHT22;27754;45.414;11.084;2022-11-23T12:09:42;11.90;70.60
42097;DHT22;27754;45.414;11.084;2022-11-23T12:12:20;12.00;70.80
42097;DHT22;27754;45.414;11.084;2022-11-23T12:14:55;12.00;69.80
42097;DHT22;27754;45.414;11.084;2022-11-23T12:17:53;11.90;70.50
42097;DHT22;27754;45.414;11.084;2022-11-23T12:32:28;12.10;70.00
42097;DHT22;27754;45.414;11.084;2022-11-23T12:38:06;12.10;70.60
42097;DHT22;27754;45.414;11.084;2022-11-23T12:43:27;12.20;70.90
42097;DHT22;27754;45.414;11.084;2022-11-23T12:49:33;12.20;69.50
42097;DHT22;27754;45.414;11.084;2022-11-23T12:55:14;12.20;69.00
42097;DHT22;27754;45.414;11.084;2022-11-23T13:00:52;12.20;69.00
42097;DHT22;27754;45.414;11.084;2022-11-23T13:14:49;12.40;70.50
42097;DHT22;27754;45.414;11.084;2022-11-23T13:22:20;12.40;71.30
42097;DHT22;27754;45.414;11.084;2022-11-23T13:27:53;12.50;71.70
42097;DHT22;27754;45.414;11.084;2022-11-23T13:30:27;12.50;71.40
42097;DHT22;27754;45.414;11.084;2022-11-23T13:35:57;12.60;71.20
42097;DHT22;27754;45.414;11.084;2022-11-23T13:38:42;12.60;71.70
42097;DHT22;27754;45.414;11.084;2022-11-23T13:46:37;12.60;72.30
42097;DHT22;27754;45.414;11.084;2022-11-23T13:49:29;12.60;72.20
42097;DHT22;27754;45.414;11.084;2022-11-23T13:57:41;12.40;73.30
42097;DHT22;27754;45.414;11.084;2022-11-23T14:00:43;12.40;73.60
42097;DHT22;27754;45.414;11.084;2022-11-23T14:14:55;12.10;82.60
42097;DHT22;27754;45.414;11.084;2022-11-23T14:20:19;12.00;84.10
42097;DHT22;27754;45.414;11.084;2022-11-23T14:43:14;11.40;86.90
42097;DHT22;27754;45.414;11.084;2022-11-23T14:45:45;11.30;87.20
42097;DHT22;27754;45.414;11.084;2022-11-23T14:48:27;11.30;87.40
42097;DHT22;27754;45.414;11.084;2022-11-23T14:50:57;11.20;87.60
42097;DHT22;27754;45.414;11.084;2022-11-23T14:53:28;11.20;87.70
42097;DHT22;27754;45.414;11.084;2022-11-23T14:55:57;11.10;87.80
42097;DHT22;27754;45.414;11.084;2022-11-23T14:58:25;11.10;87.80
42097;DHT22;27754;45.414;11.084;2022-11-23T15:01:01;11.10;87.80
42097;DHT22;27754;45.414;11.084;2022-11-23T15:03:30;11.30;87.50
42097;DHT22;27754;45.414;11.084;2022-11-23T15:06:17;11.50;87.20
42097;DHT22;27754;45.414;11.084;2022-11-23T15:11:19;11.60;85.90
42097;DHT22;27754;45.414;11.084;2022-11-23T15:13:51;11.50;85.60
42097;DHT22;27754;45.414;11.084;2022-11-23T15:16:19;11.30;86.00
42097;DHT22;27754;45.414;11.084;2022-11-23T15:18:47;11.10;86.20
42097;DHT22;27754;45.414;11.084;2022-11-23T15:21:23;10.90;86.80
42097;DHT22;27754;45.414;11.084;2022-11-23T15:23:55;10.70;87.10
42097;DHT22;27754;45.414;11.084;2022-11-23T15:26:26;10.60;87.30
42097;DHT22;27754;45.414;11.084;2022-11-23T15:29:34;10.40;87.40
42097;DHT22;27754;45.414;11.084;2022-11-23T15:32:18;10.20;87.60
42097;DHT22;27754;45.414;11.084;2022-11-23T15:35:04;10.10;87.90
42097;DHT22;27754;45.414;11.084;2022-11-23T15:37:46;9.90;88.40
42097;DHT22;27754;45.414;11.084;2022-11-23T15:40:16;9.80;88.70
42097;DHT22;27754;45.414;11.084;2022-11-23T15:42:44;9.70;89.10
42097;DHT22;27754;45.414;11.084;2022-11-23T15:46:17;9.50;89.40
42097;DHT22;27754;45.414;11.084;2022-11-23T15:48:22;9.40;89.80
42097;DHT22;27754;45.414;11.084;2022-11-23T15:50:56;9.30;90.00
42097;DHT22;27754;45.414;11.084;2022-11-23T15:53:26;9.30;90.30
42097;DHT22;27754;45.414;11.084;2022-11-23T15:55:57;9.20;90.50
42097;DHT22;27754;45.414;11.084;2022-11-23T15:58:25;9.10;90.70
42097;DHT22;27754;45.414;11.084;2022-11-23T16:01:06;9.10;91.00
42097;DHT22;27754;45.414;11.084;2022-11-23T16:03:57;9.00;91.10
42097;DHT22;27754;45.414;11.084;2022-11-23T16:06:37;8.90;91.50
42097;DHT22;27754;45.414;11.084;2022-11-23T16:12:27;8.90;92.00
42097;DHT22;27754;45.414;11.084;2022-11-23T16:15:41;8.90;92.20
42097;DHT22;27754;45.414;11.084;2022-11-23T16:17:43;8.90;92.30
42097;DHT22;27754;45.414;11.084;2022-11-23T16:20:13;8.90;92.30
42097;DHT22;27754;45.414;11.084;2022-11-23T16:22:47;8.90;92.50
42097;DHT22;27754;45.414;11.084;2022-11-23T16:25:33;8.90;92.60
42097;DHT22;27754;45.414;11.084;2022-11-23T16:28:13;8.80;92.70
42097;DHT22;27754;45.414;11.084;2022-11-23T16:30:42;8.70;92.70
42097;DHT22;27754;45.414;11.084;2022-11-23T16:33:13;8.70;93.00
42097;DHT22;27754;45.414;11.084;2022-11-23T16:35:41;8.70;93.00
42097;DHT22;27754;45.414;11.084;2022-11-23T16:38:08;8.70;93.10
42097;DHT22;27754;45.414;11.084;2022-11-23T16:40:35;8.60;93.10
42097;DHT22;27754;45.414;11.084;2022-11-23T16:43:02;8.60;93.00
42097;DHT22;27754;45.414;11.084;2022-11-23T16:45:30;8.70;93.00
42097;DHT22;27754;45.414;11.084;2022-11-23T16:48:00;8.70;93.00
42097;DHT22;27754;45.414;11.084;2022-11-23T16:50:32;8.60;93.00
42097;DHT22;27754;45.414;11.084;2022-11-23T16:53:08;8.50;93.00
42097;DHT22;27754;45.414;11.084;2022-11-23T16:55:36;8.50;93.10
42097;DHT22;27754;45.414;11.084;2022-11-23T16:58:12;8.40;93.10
42097;DHT22;27754;45.414;11.084;2022-11-23T17:00:40;8.50;93.30
42097;DHT22;27754;45.414;11.084;2022-11-23T17:03:19;8.40;93.20
42097;DHT22;27754;45.414;11.084;2022-11-23T17:05:46;8.30;93.40
42097;DHT22;27754;45.414;11.084;2022-11-23T17:08:13;8.40;93.50
42097;DHT22;27754;45.414;11.084;2022-11-23T17:10:49;8.40;93.30
42097;DHT22;27754;45.414;11.084;2022-11-23T17:13:24;8.30;93.40
42097;DHT22;27754;45.414;11.084;2022-11-23T17:15:52;8.40;93.20
42097;DHT22;27754;45.414;11.084;2022-11-23T17:18:19;8.40;92.80
42097;DHT22;27754;45.414;11.084;2022-11-23T17:20:47;8.40;92.20
42097;DHT22;27754;45.414;11.084;2022-11-23T17:23:14;8.30;92.00
42097;DHT22;27754;45.414;11.084;2022-11-23T17:25:41;8.30;92.00
42097;DHT22;27754;45.414;11.084;2022-11-23T17:28:16;8.30;92.10
42097;DHT22;27754;45.414;11.084;2022-11-23T17:30:46;8.30;92.20
42097;DHT22;27754;45.414;11.084;2022-11-23T17:33:14;8.30;92.20
42097;DHT22;27754;45.414;11.084;2022-11-23T17:35:41;8.30;92.20
42097;DHT22;27754;45.414;11.084;2022-11-23T17:38:16;8.20;92.10
42097;DHT22;27754;45.414;11.084;2022-11-23T17:40:44;8.10;92.20
42097;DHT22;27754;45.414;11.084;2022-11-23T17:43:14;8.10;92.00
42097;DHT22;27754;45.414;11.084;2022-11-23T17:45:42;8.00;92.20
42097;DHT22;27754;45.414;11.084;2022-11-23T17:48:14;8.00;92.40
42097;DHT22;27754;45.414;11.084;2022-11-23T17:50:41;8.00;92.50
42097;DHT22;27754;45.414;11.084;2022-11-23T17:53:09;7.90;92.30
42097;DHT22;27754;45.414;11.084;2022-11-23T17:55:36;7.90;92.40
42097;DHT22;27754;45.414;11.084;2022-11-23T17:58:03;7.80;92.30
42097;DHT22;27754;45.414;11.084;2022-11-23T18:00:32;7.70;92.50
42097;DHT22;27754;45.414;11.084;2022-11-23T18:03:00;7.60;92.50
42097;DHT22;27754;45.414;11.084;2022-11-23T18:05:27;7.60;92.30
42097;DHT22;27754;45.414;11.084;2022-11-23T18:07:55;7.50;91.30
42097;DHT22;27754;45.414;11.084;2022-11-23T18:10:22;7.50;90.20
42097;DHT22;27754;45.414;11.084;2022-11-23T18:12:49;7.40;89.90
42097;DHT22;27754;45.414;11.084;2022-11-23T18:15:16;7.40;89.40
42097;DHT22;27754;45.414;11.084;2022-11-23T18:17:43;7.40;89.10
42097;DHT22;27754;45.414;11.084;2022-11-23T18:20:11;7.50;88.70